createdAt,value
2023-01-23T00:01:34.445Z,-0.20
2023-01-23T00:04:01.764Z,-0.20
2023-01-23T00:06:29.157Z,-0.20
2023-01-23T00:08:57.024Z,-0.20
2023-01-23T00:11:27.665Z,-0.20
2023-01-23T00:13:54.947Z,-0.20
2023-01-23T00:16:24.156Z,-0.20
2023-01-23T00:18:52.386Z,-0.20
2023-01-23T00:21:22.891Z,-0.20
2023-01-23T00:23:52.931Z,-0.20
2023-01-23T00:26:26.136Z,-0.10
2023-01-23T00:28:54.819Z,-0.10
2023-01-23T00:31:26.016Z,-0.10
2023-01-23T00:33:58.859Z,-0.10
2023-01-23T00:36:30.128Z,-0.10
2023-01-23T00:38:57.590Z,-0.10
2023-01-23T00:41:25.169Z,-0.10
2023-01-23T00:43:52.443Z,-0.10
2023-01-23T00:46:21.584Z,-0.10
2023-01-23T00:48:48.960Z,-0.20
2023-01-23T00:51:16.155Z,-0.20
2023-01-23T00:53:43.850Z,-0.10
2023-01-23T00:56:12.066Z,-0.10
2023-01-23T00:58:40.724Z,-0.10
2023-01-23T01:01:08.462Z,-0.10
2023-01-23T01:03:35.904Z,-0.10
2023-01-23T01:06:03.083Z,-0.20
2023-01-23T01:08:30.417Z,-0.10
2023-01-23T01:10:57.627Z,-0.20
2023-01-23T01:13:25.429Z,-0.20
2023-01-23T01:15:53.712Z,-0.20
2023-01-23T01:18:22.322Z,-0.20
2023-01-23T01:20:50.042Z,-0.20
2023-01-23T01:23:17.791Z,-0.20
2023-01-23T01:25:45.091Z,-0.20
2023-01-23T01:28:12.837Z,-0.20
2023-01-23T01:30:41.430Z,-0.20
2023-01-23T01:33:09.125Z,-0.20
2023-01-23T01:35:36.249Z,-0.10
2023-01-23T01:38:03.413Z,-0.20
2023-01-23T01:40:34.372Z,-0.20
2023-01-23T01:43:08.117Z,-0.20
2023-01-23T01:46:02.963Z,-0.20
2023-01-23T01:48:43.826Z,-0.30
2023-01-23T01:51:21.526Z,-0.20
2023-01-23T01:54:16.722Z,-0.20
2023-01-23T01:56:50.048Z,-0.20
2023-01-23T01:59:19.148Z,-0.20
2023-01-23T02:01:49.948Z,-0.20
2023-01-23T02:04:17.604Z,-0.20
2023-01-23T02:06:44.854Z,-0.20
2023-01-23T02:09:23.418Z,-0.20
2023-01-23T02:11:51.516Z,-0.20
2023-01-23T02:14:19.058Z,-0.20
2023-01-23T02:16:50.783Z,-0.20
2023-01-23T02:19:30.625Z,-0.20
2023-01-23T02:22:09.545Z,-0.20
2023-01-23T02:24:44.236Z,-0.20
2023-01-23T02:27:11.460Z,-0.20
2023-01-23T02:29:44.459Z,-0.20
2023-01-23T02:32:11.967Z,-0.30
2023-01-23T02:34:39.225Z,-0.30
2023-01-23T02:37:08.237Z,-0.30
2023-01-23T02:39:35.401Z,-0.30
2023-01-23T02:42:03.402Z,-0.30
2023-01-23T02:44:32.142Z,-0.30
2023-01-23T02:47:02.881Z,-0.30
2023-01-23T02:49:30.647Z,-0.30
2023-01-23T02:51:57.936Z,-0.30
2023-01-23T02:54:26.393Z,-0.30
2023-01-23T02:56:53.568Z,-0.20
2023-01-23T02:59:38.962Z,-0.30
2023-01-23T03:02:06.519Z,-0.30
2023-01-23T03:04:33.823Z,-0.30
2023-01-23T03:07:01.090Z,-0.30
2023-01-23T03:09:28.418Z,-0.30
2023-01-23T03:11:55.796Z,-0.30
2023-01-23T03:14:24.290Z,-0.30
2023-01-23T03:16:54.089Z,-0.30
2023-01-23T03:19:25.170Z,-0.30
2023-01-23T03:21:53.489Z,-0.20
2023-01-23T03:24:21.188Z,-0.20
2023-01-23T03:26:49.767Z,-0.30
2023-01-23T03:29:38.355Z,-0.30
2023-01-23T03:32:06.239Z,-0.30
2023-01-23T03:34:33.595Z,-0.30
2023-01-23T03:37:01.551Z,-0.30
2023-01-23T03:39:47.509Z,-0.30
2023-01-23T03:42:14.736Z,-0.30
2023-01-23T03:44:43.320Z,-0.30
2023-01-23T03:47:10.889Z,-0.20
2023-01-23T03:49:38.080Z,-0.20
2023-01-23T03:52:05.401Z,-0.20
2023-01-23T03:54:32.677Z,-0.20
2023-01-23T03:56:59.884Z,-0.20
2023-01-23T03:59:27.062Z,-0.20
2023-01-23T04:01:54.199Z,-0.30
2023-01-23T04:04:21.470Z,-0.30
2023-01-23T04:06:48.535Z,-0.30
2023-01-23T04:09:15.713Z,-0.30
2023-01-23T04:11:42.797Z,-0.20
2023-01-23T04:14:10.099Z,-0.20
2023-01-23T04:16:39.479Z,-0.20
2023-01-23T04:19:06.597Z,-0.20
2023-01-23T04:21:33.733Z,-0.30
2023-01-23T04:24:00.860Z,-0.30
2023-01-23T04:26:29.503Z,-0.30
2023-01-23T04:28:56.698Z,-0.30
2023-01-23T04:31:23.899Z,-0.30
2023-01-23T04:33:51.188Z,-0.30
2023-01-23T04:36:18.302Z,-0.30
2023-01-23T04:38:45.366Z,-0.30
2023-01-23T04:41:24.618Z,-0.30
2023-01-23T04:43:51.840Z,-0.40
2023-01-23T04:46:19.063Z,-0.40
2023-01-23T04:48:48.716Z,-0.30
2023-01-23T04:51:16.210Z,-0.40
2023-01-23T04:53:43.433Z,-0.40
2023-01-23T04:56:10.497Z,-0.30
2023-01-23T04:58:37.700Z,-0.30
2023-01-23T05:01:08.693Z,-0.30
2023-01-23T05:03:35.955Z,-0.30
2023-01-23T05:06:03.143Z,-0.20
2023-01-23T05:08:30.264Z,-0.20
2023-01-23T05:10:57.372Z,-0.20
2023-01-23T05:13:24.452Z,-0.20
2023-01-23T05:15:51.580Z,-0.20
2023-01-23T05:18:18.684Z,-0.20
2023-01-23T05:20:45.801Z,-0.20
2023-01-23T05:23:12.885Z,-0.20
2023-01-23T05:25:40.042Z,-0.20
2023-01-23T05:28:07.125Z,-0.20
2023-01-23T05:30:34.589Z,-0.20
2023-01-23T05:33:01.769Z,-0.20
2023-01-23T05:35:29.065Z,-0.20
2023-01-23T05:37:56.221Z,-0.20
2023-01-23T05:40:23.808Z,-0.20
2023-01-23T05:42:51.488Z,-0.10
2023-01-23T05:45:18.809Z,-0.10
2023-01-23T05:47:46.091Z,-0.10
2023-01-23T05:50:18.177Z,-0.10
2023-01-23T05:52:46.615Z,0.00
2023-01-23T05:55:14.449Z,0.00
2023-01-23T05:57:42.095Z,0.20
2023-01-23T06:00:14.088Z,0.20
2023-01-23T06:02:41.423Z,0.20
2023-01-23T06:05:09.038Z,0.10
2023-01-23T06:07:37.728Z,0.10
2023-01-23T06:10:09.031Z,0.00
2023-01-23T06:12:37.379Z,0.00
2023-01-23T06:15:05.290Z,0.00
2023-01-23T06:17:34.885Z,0.00
2023-01-23T06:20:02.388Z,0.10
2023-01-23T06:22:31.443Z,0.00
2023-01-23T06:24:58.756Z,0.10
2023-01-23T06:27:25.849Z,0.10
2023-01-23T06:29:53.112Z,0.10
2023-01-23T06:32:20.332Z,0.10
2023-01-23T06:34:47.505Z,0.10
2023-01-23T06:37:14.631Z,0.20
2023-01-23T06:39:41.850Z,0.20
2023-01-23T06:42:10.459Z,0.20
2023-01-23T06:44:38.032Z,0.20
2023-01-23T06:47:05.422Z,0.10
2023-01-23T06:49:32.962Z,0.10
2023-01-23T06:52:00.134Z,0.10
2023-01-23T06:54:27.421Z,0.10
2023-01-23T06:56:54.677Z,0.10
2023-01-23T06:59:21.809Z,0.10
2023-01-23T07:01:49.110Z,0.20
2023-01-23T07:04:16.322Z,0.20
2023-01-23T07:06:43.479Z,0.20
2023-01-23T07:09:10.892Z,0.20
2023-01-23T07:11:38.123Z,0.20
2023-01-23T07:14:05.188Z,0.20
2023-01-23T07:16:33.128Z,0.20
2023-01-23T07:19:00.361Z,0.20
2023-01-23T07:21:27.571Z,0.20
2023-01-23T07:23:54.655Z,0.20
2023-01-23T07:26:21.804Z,0.20
2023-01-23T07:28:48.918Z,0.20
2023-01-23T07:31:16.858Z,0.20
2023-01-23T07:33:43.996Z,0.30
2023-01-23T07:36:14.113Z,0.30
2023-01-23T07:38:41.499Z,0.30
2023-01-23T07:41:09.109Z,0.30
2023-01-23T07:43:36.236Z,0.40
2023-01-23T07:46:03.467Z,0.50
2023-01-23T07:48:30.777Z,0.50
2023-01-23T07:51:01.622Z,0.60
2023-01-23T07:53:28.881Z,0.50
2023-01-23T07:55:56.071Z,0.50
2023-01-23T07:58:23.329Z,0.50
2023-01-23T08:00:50.558Z,0.60
2023-01-23T08:03:18.729Z,0.60
2023-01-23T08:05:50.094Z,0.70
2023-01-23T08:08:17.680Z,0.80
2023-01-23T08:10:44.841Z,0.90
2023-01-23T08:13:12.098Z,0.90
2023-01-23T08:15:39.216Z,1.00
2023-01-23T08:18:10.230Z,1.00
2023-01-23T08:20:37.379Z,1.00
2023-01-23T08:23:04.616Z,1.10
2023-01-23T08:25:31.753Z,1.10
2023-01-23T08:27:58.910Z,1.20
2023-01-23T08:30:26.093Z,1.30
2023-01-23T08:32:53.291Z,1.40
2023-01-23T08:35:20.425Z,1.50
2023-01-23T08:37:47.659Z,1.60
2023-01-23T08:40:14.816Z,1.60
2023-01-23T08:42:42.047Z,1.50
2023-01-23T08:45:09.686Z,1.40
2023-01-23T08:47:37.221Z,1.40
2023-01-23T08:50:05.835Z,1.40
2023-01-23T08:52:34.958Z,1.50
2023-01-23T08:55:02.108Z,1.50
2023-01-23T08:57:29.231Z,1.50
2023-01-23T08:59:56.369Z,1.50
2023-01-23T09:02:23.586Z,1.60
2023-01-23T09:04:51.489Z,1.60
2023-01-23T09:07:18.637Z,1.40
2023-01-23T09:09:45.773Z,1.30
2023-01-23T09:12:12.960Z,1.30
2023-01-23T09:14:40.159Z,1.30
2023-01-23T09:17:07.275Z,1.30
2023-01-23T09:19:34.658Z,1.20
2023-01-23T09:22:01.913Z,1.30
2023-01-23T09:24:29.241Z,1.50
2023-01-23T09:26:56.396Z,1.70
2023-01-23T09:29:23.571Z,1.80
2023-01-23T09:31:50.660Z,2.00
2023-01-23T09:34:17.998Z,2.00
2023-01-23T09:36:45.114Z,2.00
2023-01-23T09:39:12.684Z,1.80
2023-01-23T09:41:41.638Z,1.70
2023-01-23T09:44:17.812Z,1.60
2023-01-23T09:46:56.411Z,1.50
2023-01-23T09:49:53.354Z,1.60
2023-01-23T09:52:24.131Z,1.80
2023-01-23T09:55:02.324Z,1.90
2023-01-23T09:57:35.850Z,2.00
2023-01-23T10:00:17.693Z,2.00
2023-01-23T10:02:45.861Z,2.00
2023-01-23T10:05:16.076Z,2.10
2023-01-23T10:08:06.121Z,2.00
2023-01-23T10:11:12.730Z,1.90
2023-01-23T10:13:54.357Z,1.90
2023-01-23T10:16:55.581Z,2.00
2023-01-23T10:19:47.363Z,2.00
2023-01-23T10:22:34.803Z,1.90
2023-01-23T10:25:16.570Z,1.70
2023-01-23T10:27:47.829Z,1.70
2023-01-23T10:30:38.738Z,1.80
2023-01-23T10:33:17.986Z,1.90
2023-01-23T10:35:58.978Z,1.80
2023-01-23T10:38:46.635Z,1.80
2023-01-23T10:41:23.321Z,1.70
2023-01-23T10:43:53.768Z,2.00
2023-01-23T10:46:28.438Z,2.00
2023-01-23T10:48:56.477Z,2.20
2023-01-23T10:51:36.125Z,2.30
2023-01-23T10:54:31.692Z,2.40
2023-01-23T10:57:18.888Z,2.40
2023-01-23T10:59:58.009Z,2.30
2023-01-23T11:02:48.175Z,2.20
2023-01-23T11:05:52.197Z,2.30
2023-01-23T11:08:29.517Z,2.10
2023-01-23T11:11:15.398Z,1.90
2023-01-23T11:13:48.210Z,2.00
2023-01-23T11:16:18.836Z,2.00
2023-01-23T11:19:06.355Z,1.90
2023-01-23T11:21:35.904Z,1.90
2023-01-23T11:24:17.648Z,2.00
2023-01-23T11:26:45.281Z,2.20
2023-01-23T11:29:46.987Z,2.30
2023-01-23T11:32:16.556Z,2.30
2023-01-23T11:34:50.087Z,2.40
2023-01-23T11:37:32.512Z,2.40
2023-01-23T11:40:15.435Z,2.40
2023-01-23T11:42:43.909Z,2.40
2023-01-23T11:45:37.011Z,2.30
2023-01-23T11:48:39.111Z,2.40
2023-01-23T11:51:20.711Z,2.60
2023-01-23T11:53:57.681Z,2.70
2023-01-23T11:56:36.950Z,2.80
2023-01-23T11:59:09.981Z,2.80
2023-01-23T12:02:12.529Z,3.00
2023-01-23T12:05:13.656Z,3.00
2023-01-23T12:08:12.008Z,3.00
2023-01-23T12:11:01.293Z,2.60
2023-01-23T12:13:57.937Z,2.70
2023-01-23T12:16:50.086Z,2.60
2023-01-23T12:19:32.009Z,2.60
2023-01-23T12:22:20.334Z,2.70
2023-01-23T12:25:12.854Z,2.50
2023-01-23T12:27:46.920Z,2.20
2023-01-23T12:30:23.386Z,2.30
2023-01-23T12:33:06.591Z,2.40
2023-01-23T12:36:02.427Z,2.50
2023-01-23T12:38:45.554Z,2.50
2023-01-23T12:41:29.449Z,2.40
2023-01-23T12:44:09.085Z,2.20
2023-01-23T12:47:00.301Z,2.10
2023-01-23T12:49:39.153Z,2.00
2023-01-23T12:52:28.995Z,2.10
2023-01-23T12:55:01.892Z,2.00
2023-01-23T12:57:52.534Z,1.90
2023-01-23T13:00:35.496Z,2.00
2023-01-23T13:03:47.234Z,1.90
2023-01-23T13:06:41.244Z,2.00
2023-01-23T13:09:17.806Z,1.70
2023-01-23T13:11:54.585Z,1.70
2023-01-23T13:14:36.867Z,1.70
2023-01-23T13:17:33.549Z,1.90
2023-01-23T13:20:39.369Z,1.90
2023-01-23T13:23:32.423Z,1.80
2023-01-23T13:26:23.369Z,1.80
2023-01-23T13:28:58.065Z,1.80
2023-01-23T13:31:34.463Z,1.70
2023-01-23T13:34:15.407Z,1.90
2023-01-23T13:36:48.520Z,1.80
2023-01-23T13:39:18.510Z,1.80
2023-01-23T13:41:46.919Z,1.80
2023-01-23T13:44:41.554Z,1.70
2023-01-23T14:20:19.292Z,1.40
2023-01-23T14:22:46.716Z,1.30
2023-01-23T14:25:18.758Z,1.30
2023-01-23T14:27:54.642Z,1.30
2023-01-23T14:30:30.465Z,1.30
2023-01-23T14:33:01.429Z,1.30
2023-01-23T14:35:33.149Z,1.30
2023-01-23T14:38:08.920Z,1.30
2023-01-23T14:40:50.239Z,1.30
2023-01-23T14:43:22.110Z,1.30
2023-01-23T14:46:05.084Z,1.30
2023-01-23T14:48:37.720Z,1.30
2023-01-23T14:51:19.758Z,1.20
2023-01-23T14:53:58.858Z,1.20
2023-01-23T14:56:32.485Z,1.30
2023-01-23T14:59:07.248Z,1.20
2023-01-23T15:01:36.023Z,1.30
2023-01-23T15:04:06.113Z,1.30
2023-01-23T15:06:36.097Z,1.30
2023-01-23T15:09:14.377Z,1.30
2023-01-23T15:11:41.725Z,1.30
2023-01-23T15:14:23.939Z,1.30
2023-01-23T15:16:52.488Z,1.40
2023-01-23T15:19:22.909Z,1.30
2023-01-23T15:21:51.073Z,1.30
2023-01-23T15:24:26.803Z,1.30
2023-01-23T15:26:58.471Z,1.40
2023-01-23T15:29:27.405Z,1.40
2023-01-23T15:31:58.972Z,1.30
2023-01-23T15:34:28.085Z,1.30
2023-01-23T15:37:12.384Z,1.40
2023-01-23T15:40:04.484Z,1.40
2023-01-23T15:42:34.160Z,1.40
2023-01-23T15:45:02.779Z,1.40
2023-01-23T15:47:31.464Z,1.50
2023-01-23T15:50:03.314Z,1.40
2023-01-23T15:52:54.938Z,1.30
2023-01-23T15:55:26.364Z,1.30
2023-01-23T15:57:54.125Z,1.30
2023-01-23T16:00:27.557Z,1.30
2023-01-23T16:02:57.482Z,1.40
2023-01-23T16:05:28.845Z,1.30
2023-01-23T16:07:57.506Z,1.40
2023-01-23T16:10:30.093Z,1.40
2023-01-23T16:12:58.722Z,1.30
2023-01-23T16:15:29.051Z,1.40
2023-01-23T16:17:56.948Z,1.50
2023-01-23T16:20:28.587Z,1.40
2023-01-23T16:23:14.122Z,1.40
2023-01-23T16:25:44.877Z,1.40
2023-01-23T16:28:19.331Z,1.40
2023-01-23T16:30:47.516Z,1.40
2023-01-23T16:33:15.656Z,1.50
2023-01-23T16:35:43.473Z,1.40
2023-01-23T16:38:29.590Z,1.40
2023-01-23T16:40:59.911Z,1.40
2023-01-23T16:43:28.287Z,1.30
2023-01-23T16:45:57.293Z,1.30
2023-01-23T16:48:28.574Z,1.30
2023-01-23T16:51:19.913Z,1.30
2023-01-23T16:53:55.280Z,1.40
2023-01-23T16:56:36.242Z,1.30
2023-01-23T16:59:17.030Z,1.30
2023-01-23T17:01:47.688Z,1.40
2023-01-23T17:04:18.579Z,1.40
2023-01-23T17:06:46.259Z,1.40
2023-01-23T17:09:14.273Z,1.40
2023-01-23T17:11:59.540Z,1.40
2023-01-23T17:14:30.773Z,1.40
2023-01-23T17:17:07.411Z,1.40
2023-01-23T17:19:39.377Z,1.40
2023-01-23T17:22:14.210Z,1.40
2023-01-23T17:24:41.578Z,1.40
2023-01-23T17:27:08.830Z,1.40
2023-01-23T17:29:36.271Z,1.40
2023-01-23T17:32:04.682Z,1.40
2023-01-23T17:34:48.676Z,1.40
2023-01-23T17:37:21.584Z,1.40
2023-01-23T17:39:49.676Z,1.40
2023-01-23T17:42:18.973Z,1.50
2023-01-23T17:44:48.022Z,1.40
2023-01-23T17:47:16.188Z,1.50
2023-01-23T17:49:57.195Z,1.50
2023-01-23T17:52:27.629Z,1.50
2023-01-23T17:54:55.335Z,1.40
2023-01-23T17:57:22.892Z,1.50
2023-01-23T17:59:50.440Z,1.50
2023-01-23T18:02:24.287Z,1.50
2023-01-23T18:04:52.042Z,1.50
2023-01-23T18:07:19.833Z,1.50
2023-01-23T18:09:47.973Z,1.50
2023-01-23T18:12:40.381Z,1.50
2023-01-23T18:15:21.730Z,1.50
2023-01-23T18:18:03.920Z,1.50
2023-01-23T18:20:33.803Z,1.50
2023-01-23T18:23:01.788Z,1.50
2023-01-23T18:25:31.622Z,1.50
2023-01-23T18:28:07.407Z,1.40
2023-01-23T18:30:56.947Z,1.50
2023-01-23T18:33:49.032Z,1.50
2023-01-23T18:36:36.080Z,1.50
2023-01-23T18:39:32.727Z,1.50
2023-01-23T18:42:17.364Z,1.60
2023-01-23T18:44:59.595Z,1.60
2023-01-23T18:47:31.037Z,1.60
2023-01-23T18:49:59.398Z,1.50
2023-01-23T18:52:49.321Z,1.50
2023-01-23T18:55:35.698Z,1.60
2023-01-23T18:58:13.236Z,1.60
2023-01-23T19:00:48.759Z,1.60
2023-01-23T19:03:19.016Z,1.60
2023-01-23T19:05:49.842Z,1.60
2023-01-23T19:08:30.420Z,1.70
2023-01-23T19:11:06.143Z,1.70
2023-01-23T19:13:51.224Z,1.70
2023-01-23T19:16:34.025Z,1.70
2023-01-23T19:19:15.993Z,1.70
2023-01-23T19:21:47.734Z,1.70
2023-01-23T19:24:20.112Z,1.80
2023-01-23T19:26:48.525Z,1.80
2023-01-23T19:29:22.295Z,1.80
2023-01-23T19:32:04.145Z,1.90
2023-01-23T19:34:35.015Z,1.90
2023-01-23T19:37:04.120Z,1.90
2023-01-23T19:39:35.294Z,1.90
2023-01-23T19:42:04.465Z,1.90
2023-01-23T19:44:33.840Z,1.90
2023-01-23T19:47:05.661Z,2.00
2023-01-23T19:49:33.517Z,1.90
2023-01-23T19:52:02.715Z,1.90
2023-01-23T19:54:38.045Z,1.90
2023-01-23T19:57:11.111Z,1.90
2023-01-23T19:59:39.654Z,1.90
2023-01-23T20:02:22.024Z,1.80
2023-01-23T20:04:50.350Z,1.80
2023-01-23T20:07:18.175Z,1.80
2023-01-23T20:09:46.262Z,1.80
2023-01-23T20:12:14.345Z,1.70
2023-01-23T20:14:42.290Z,1.70
2023-01-23T20:17:10.508Z,1.70
2023-01-23T20:19:40.184Z,1.80
2023-01-23T20:22:10.070Z,1.80
2023-01-23T20:24:38.263Z,1.80
2023-01-23T20:27:06.451Z,1.80
2023-01-23T20:29:34.485Z,1.80
2023-01-23T20:32:02.739Z,1.80
2023-01-23T20:34:31.033Z,1.80
2023-01-23T20:36:59.244Z,1.80
2023-01-23T20:39:27.420Z,1.80
2023-01-23T20:41:55.325Z,1.90
2023-01-23T20:44:22.971Z,1.90
2023-01-23T20:46:51.208Z,1.80
2023-01-23T20:49:20.170Z,1.80
2023-01-23T20:51:47.766Z,1.80
2023-01-23T20:54:17.498Z,1.80
2023-01-23T20:56:46.751Z,1.80
2023-01-23T20:59:22.044Z,1.80
2023-01-23T21:02:08.418Z,1.80
2023-01-23T21:04:37.359Z,1.90
2023-01-23T21:07:05.779Z,1.90
2023-01-23T21:09:33.587Z,1.90
2023-01-23T21:12:01.583Z,1.80
2023-01-23T21:14:29.734Z,1.80
2023-01-23T21:16:58.629Z,1.80
2023-01-23T21:19:26.929Z,1.80
2023-01-23T21:21:54.609Z,1.80
2023-01-23T21:24:21.923Z,1.80
2023-01-23T21:26:50.159Z,1.80
2023-01-23T21:29:17.544Z,1.80
2023-01-23T21:31:45.149Z,1.90
2023-01-23T21:34:15.361Z,1.90
2023-01-23T21:36:43.170Z,1.90
2023-01-23T21:39:14.465Z,1.90
2023-01-23T21:41:42.058Z,1.90
2023-01-23T21:44:13.553Z,1.90
2023-01-23T21:46:41.231Z,1.90
2023-01-23T21:49:08.647Z,1.90
2023-01-23T21:51:35.891Z,2.00
2023-01-23T21:54:03.532Z,2.00
2023-01-23T21:56:31.368Z,2.10
2023-01-23T21:58:59.185Z,2.10
2023-01-23T22:01:33.285Z,2.20
2023-01-23T22:04:07.166Z,2.30
2023-01-23T22:06:36.662Z,2.30
2023-01-23T22:09:05.024Z,2.40
2023-01-23T22:11:32.364Z,2.40
2023-01-23T22:13:59.991Z,2.50
2023-01-23T22:16:45.597Z,2.40
2023-01-23T22:19:16.055Z,2.40
2023-01-23T22:21:43.973Z,2.50
2023-01-23T22:24:11.129Z,2.40
2023-01-23T22:26:38.364Z,2.50
2023-01-23T22:29:05.499Z,2.50
2023-01-23T22:31:33.455Z,2.50
2023-01-23T22:34:00.743Z,2.40
2023-01-23T22:36:27.882Z,2.40
2023-01-23T22:38:55.571Z,2.50
2023-01-23T22:41:23.353Z,2.50
2023-01-23T22:43:59.421Z,2.50
2023-01-23T22:46:27.640Z,2.50
2023-01-23T22:48:54.912Z,2.50
2023-01-23T22:51:24.809Z,2.40
2023-01-23T22:53:54.211Z,2.50
2023-01-23T22:56:22.216Z,2.50
2023-01-23T22:58:51.774Z,2.50
2023-01-23T23:01:19.821Z,2.50
2023-01-23T23:03:47.035Z,2.50
2023-01-23T23:06:15.797Z,2.50
2023-01-23T23:08:45.126Z,2.50
2023-01-23T23:11:22.901Z,2.50
2023-01-23T23:13:50.252Z,2.50
2023-01-23T23:16:19.114Z,2.50
2023-01-23T23:18:48.952Z,2.50
2023-01-23T23:21:19.853Z,2.50
2023-01-23T23:23:47.311Z,2.50
2023-01-23T23:26:15.558Z,2.50
2023-01-23T23:28:42.726Z,2.50
2023-01-23T23:31:10.326Z,2.50
2023-01-23T23:33:37.986Z,2.40
2023-01-23T23:36:05.924Z,2.40
2023-01-23T23:38:33.617Z,2.40
2023-01-23T23:41:03.865Z,2.40
2023-01-23T23:43:31.319Z,2.40
2023-01-23T23:46:04.354Z,2.50
2023-01-23T23:48:32.761Z,2.40
2023-01-23T23:51:01.335Z,2.50
2023-01-23T23:53:28.650Z,2.50
2023-01-23T23:55:55.914Z,2.50
2023-01-23T23:58:24.104Z,2.50
